sensor_id;sensor_type;location;lat;lon;timestamp;P1;durP1;ratioP1;P2;durP2;ratioP2
77409;SDS011;66481;51.332;22.804;2023-04-08T00:03:41;28.08;;;13.70;;
77409;SDS011;66481;51.332;22.804;2023-04-08T00:07:42;31.45;;;14.35;;
77409;SDS011;66481;51.332;22.804;2023-04-08T00:11:43;27.17;;;13.10;;
77409;SDS011;66481;51.332;22.804;2023-04-08T00:15:44;30.58;;;14.50;;
77409;SDS011;66481;51.332;22.804;2023-04-08T00:19:45;31.83;;;15.90;;
77409;SDS011;66481;51.332;22.804;2023-04-08T00:23:46;31.63;;;15.10;;
77409;SDS011;66481;51.332;22.804;2023-04-08T00:27:47;28.80;;;14.25;;
77409;SDS011;66481;51.332;22.804;2023-04-08T00:31:48;32.35;;;14.95;;
77409;SDS011;66481;51.332;22.804;2023-04-08T00:35:49;35.67;;;15.50;;
77409;SDS011;66481;51.332;22.804;2023-04-08T00:39:51;32.35;;;15.35;;
77409;SDS011;66481;51.332;22.804;2023-04-08T00:43:53;36.42;;;16.42;;
77409;SDS011;66481;51.332;22.804;2023-04-08T00:47:55;30.50;;;16.52;;
77409;SDS011;66481;51.332;22.804;2023-04-08T00:51:57;40.47;;;17.80;;
77409;SDS011;66481;51.332;22.804;2023-04-08T00:55:59;34.38;;;16.45;;
77409;SDS011;66481;51.332;22.804;2023-04-08T01:00:01;34.90;;;14.85;;
77409;SDS011;66481;51.332;22.804;2023-04-08T01:08:26;30.35;;;14.23;;
77409;SDS011;66481;51.332;22.804;2023-04-08T01:12:31;26.95;;;13.95;;
77409;SDS011;66481;51.332;22.804;2023-04-08T01:16:37;30.45;;;13.57;;
77409;SDS011;66481;51.332;22.804;2023-04-08T01:20:41;27.13;;;13.45;;
77409;SDS011;66481;51.332;22.804;2023-04-08T01:24:42;31.38;;;15.75;;
77409;SDS011;66481;51.332;22.804;2023-04-08T01:28:45;24.38;;;12.05;;
77409;SDS011;66481;51.332;22.804;2023-04-08T01:32:47;26.75;;;12.90;;
77409;SDS011;66481;51.332;22.804;2023-04-08T01:36:51;23.83;;;13.73;;
77409;SDS011;66481;51.332;22.804;2023-04-08T01:40:54;27.20;;;12.93;;
77409;SDS011;66481;51.332;22.804;2023-04-08T01:44:56;29.23;;;13.00;;
77409;SDS011;66481;51.332;22.804;2023-04-08T01:49:00;27.38;;;13.65;;
77409;SDS011;66481;51.332;22.804;2023-04-08T01:53:02;26.23;;;13.23;;
77409;SDS011;66481;51.332;22.804;2023-04-08T01:57:05;23.42;;;11.85;;
77409;SDS011;66481;51.332;22.804;2023-04-08T02:01:12;30.10;;;12.48;;
77409;SDS011;66481;51.332;22.804;2023-04-08T02:05:20;23.40;;;12.73;;
77409;SDS011;66481;51.332;22.804;2023-04-08T02:09:21;21.13;;;10.30;;
77409;SDS011;66481;51.332;22.804;2023-04-08T02:13:24;20.77;;;10.60;;
77409;SDS011;66481;51.332;22.804;2023-04-08T02:17:41;21.98;;;11.00;;
77409;SDS011;66481;51.332;22.804;2023-04-08T02:21:54;20.27;;;9.85;;
77409;SDS011;66481;51.332;22.804;2023-04-08T02:25:59;23.02;;;10.90;;
77409;SDS011;66481;51.332;22.804;2023-04-08T02:30:02;21.45;;;10.57;;
77409;SDS011;66481;51.332;22.804;2023-04-08T02:34:05;23.60;;;10.68;;
77409;SDS011;66481;51.332;22.804;2023-04-08T02:38:08;23.05;;;11.95;;
77409;SDS011;66481;51.332;22.804;2023-04-08T02:42:10;25.63;;;11.80;;
77409;SDS011;66481;51.332;22.804;2023-04-08T02:46:11;21.15;;;9.75;;
77409;SDS011;66481;51.332;22.804;2023-04-08T02:50:12;17.20;;;7.78;;
77409;SDS011;66481;51.332;22.804;2023-04-08T02:54:14;21.58;;;11.95;;
77409;SDS011;66481;51.332;22.804;2023-04-08T02:58:15;21.25;;;10.32;;
77409;SDS011;66481;51.332;22.804;2023-04-08T03:02:17;27.45;;;11.50;;
77409;SDS011;66481;51.332;22.804;2023-04-08T03:06:17;17.85;;;8.13;;
77409;SDS011;66481;51.332;22.804;2023-04-08T03:10:18;24.30;;;11.73;;
77409;SDS011;66481;51.332;22.804;2023-04-08T03:14:20;16.30;;;9.23;;
77409;SDS011;66481;51.332;22.804;2023-04-08T03:18:21;20.08;;;10.27;;
77409;SDS011;66481;51.332;22.804;2023-04-08T03:22:22;24.65;;;12.23;;
77409;SDS011;66481;51.332;22.804;2023-04-08T03:26:23;16.40;;;9.45;;
77409;SDS011;66481;51.332;22.804;2023-04-08T03:30:26;20.67;;;11.32;;
77409;SDS011;66481;51.332;22.804;2023-04-08T03:34:27;23.65;;;12.13;;
77409;SDS011;66481;51.332;22.804;2023-04-08T03:38:28;17.98;;;9.13;;
77409;SDS011;66481;51.332;22.804;2023-04-08T03:42:29;17.70;;;11.20;;
77409;SDS011;66481;51.332;22.804;2023-04-08T03:46:30;21.20;;;9.85;;
77409;SDS011;66481;51.332;22.804;2023-04-08T03:50:31;19.90;;;10.75;;
77409;SDS011;66481;51.332;22.804;2023-04-08T03:54:32;21.65;;;11.50;;
77409;SDS011;66481;51.332;22.804;2023-04-08T03:58:33;19.33;;;10.07;;
77409;SDS011;66481;51.332;22.804;2023-04-08T04:02:34;19.30;;;9.60;;
77409;SDS011;66481;51.332;22.804;2023-04-08T04:06:35;20.50;;;11.40;;
77409;SDS011;66481;51.332;22.804;2023-04-08T04:10:37;20.08;;;10.93;;
77409;SDS011;66481;51.332;22.804;2023-04-08T04:14:38;20.65;;;11.07;;
77409;SDS011;66481;51.332;22.804;2023-04-08T04:18:39;24.20;;;12.00;;
77409;SDS011;66481;51.332;22.804;2023-04-08T04:22:40;24.52;;;12.40;;
77409;SDS011;66481;51.332;22.804;2023-04-08T04:26:41;26.20;;;13.27;;
77409;SDS011;66481;51.332;22.804;2023-04-08T04:30:42;18.15;;;8.98;;
77409;SDS011;66481;51.332;22.804;2023-04-08T04:34:43;15.32;;;9.68;;
77409;SDS011;66481;51.332;22.804;2023-04-08T04:38:44;14.10;;;8.18;;
77409;SDS011;66481;51.332;22.804;2023-04-08T04:42:45;13.13;;;8.23;;
77409;SDS011;66481;51.332;22.804;2023-04-08T04:46:46;15.80;;;8.13;;
77409;SDS011;66481;51.332;22.804;2023-04-08T04:50:54;13.13;;;8.90;;
77409;SDS011;66481;51.332;22.804;2023-04-08T04:54:56;12.43;;;7.60;;
77409;SDS011;66481;51.332;22.804;2023-04-08T04:58:58;13.73;;;7.65;;
77409;SDS011;66481;51.332;22.804;2023-04-08T05:02:59;13.10;;;6.97;;
77409;SDS011;66481;51.332;22.804;2023-04-08T05:06:59;13.90;;;8.00;;
77409;SDS011;66481;51.332;22.804;2023-04-08T05:11:01;11.98;;;8.52;;
77409;SDS011;66481;51.332;22.804;2023-04-08T05:15:02;10.68;;;6.88;;
77409;SDS011;66481;51.332;22.804;2023-04-08T05:19:04;11.85;;;7.55;;
77409;SDS011;66481;51.332;22.804;2023-04-08T05:23:05;12.98;;;7.32;;
77409;SDS011;66481;51.332;22.804;2023-04-08T05:27:07;10.48;;;6.50;;
77409;SDS011;66481;51.332;22.804;2023-04-08T05:31:08;11.52;;;7.30;;
77409;SDS011;66481;51.332;22.804;2023-04-08T05:35:09;12.95;;;8.95;;
77409;SDS011;66481;51.332;22.804;2023-04-08T05:39:10;11.85;;;7.30;;
77409;SDS011;66481;51.332;22.804;2023-04-08T05:43:11;10.48;;;7.68;;
77409;SDS011;66481;51.332;22.804;2023-04-08T05:47:12;14.13;;;8.02;;
77409;SDS011;66481;51.332;22.804;2023-04-08T05:51:14;11.27;;;7.32;;
77409;SDS011;66481;51.332;22.804;2023-04-08T05:55:17;12.25;;;8.57;;
77409;SDS011;66481;51.332;22.804;2023-04-08T05:59:19;11.38;;;7.55;;
77409;SDS011;66481;51.332;22.804;2023-04-08T06:03:20;12.35;;;8.40;;
77409;SDS011;66481;51.332;22.804;2023-04-08T06:07:21;11.20;;;8.15;;
77409;SDS011;66481;51.332;22.804;2023-04-08T06:11:22;11.60;;;7.38;;
77409;SDS011;66481;51.332;22.804;2023-04-08T06:15:24;11.23;;;7.25;;
77409;SDS011;66481;51.332;22.804;2023-04-08T06:19:25;10.48;;;7.25;;
77409;SDS011;66481;51.332;22.804;2023-04-08T06:23:27;10.02;;;7.68;;
77409;SDS011;66481;51.332;22.804;2023-04-08T06:27:28;10.48;;;7.13;;
77409;SDS011;66481;51.332;22.804;2023-04-08T06:31:29;8.90;;;6.75;;
77409;SDS011;66481;51.332;22.804;2023-04-08T06:35:31;12.45;;;7.82;;
77409;SDS011;66481;51.332;22.804;2023-04-08T06:39:32;10.38;;;7.88;;
77409;SDS011;66481;51.332;22.804;2023-04-08T06:43:34;8.77;;;6.70;;
77409;SDS011;66481;51.332;22.804;2023-04-08T06:47:37;11.73;;;6.97;;
77409;SDS011;66481;51.332;22.804;2023-04-08T06:51:38;9.88;;;7.40;;
77409;SDS011;66481;51.332;22.804;2023-04-08T06:55:39;10.32;;;5.43;;
77409;SDS011;66481;51.332;22.804;2023-04-08T06:59:40;10.25;;;6.38;;
77409;SDS011;66481;51.332;22.804;2023-04-08T07:03:42;8.07;;;5.80;;
77409;SDS011;66481;51.332;22.804;2023-04-08T07:07:43;9.35;;;6.45;;
77409;SDS011;66481;51.332;22.804;2023-04-08T07:11:44;9.18;;;6.03;;
77409;SDS011;66481;51.332;22.804;2023-04-08T07:15:46;8.93;;;5.35;;
77409;SDS011;66481;51.332;22.804;2023-04-08T07:19:47;9.18;;;5.82;;
77409;SDS011;66481;51.332;22.804;2023-04-08T07:23:49;8.48;;;5.63;;
77409;SDS011;66481;51.332;22.804;2023-04-08T07:27:51;7.55;;;4.85;;
77409;SDS011;66481;51.332;22.804;2023-04-08T07:31:54;9.93;;;6.15;;
77409;SDS011;66481;51.332;22.804;2023-04-08T07:35:55;10.02;;;5.75;;
77409;SDS011;66481;51.332;22.804;2023-04-08T07:39:56;8.77;;;5.32;;
77409;SDS011;66481;51.332;22.804;2023-04-08T07:43:58;8.73;;;6.35;;
77409;SDS011;66481;51.332;22.804;2023-04-08T07:48:00;8.23;;;5.38;;
77409;SDS011;66481;51.332;22.804;2023-04-08T07:52:02;6.32;;;4.78;;
77409;SDS011;66481;51.332;22.804;2023-04-08T07:56:09;7.38;;;5.20;;
77409;SDS011;66481;51.332;22.804;2023-04-08T08:00:14;7.88;;;5.03;;
77409;SDS011;66481;51.332;22.804;2023-04-08T08:04:21;8.18;;;5.72;;
77409;SDS011;66481;51.332;22.804;2023-04-08T08:08:25;8.73;;;6.45;;
77409;SDS011;66481;51.332;22.804;2023-04-08T08:12:27;8.25;;;6.03;;
77409;SDS011;66481;51.332;22.804;2023-04-08T08:16:28;10.40;;;6.50;;
77409;SDS011;66481;51.332;22.804;2023-04-08T08:20:30;9.52;;;6.93;;
77409;SDS011;66481;51.332;22.804;2023-04-08T08:24:35;12.90;;;8.75;;
77409;SDS011;66481;51.332;22.804;2023-04-08T08:28:38;8.90;;;5.70;;
77409;SDS011;66481;51.332;22.804;2023-04-08T08:32:39;10.85;;;7.38;;
77409;SDS011;66481;51.332;22.804;2023-04-08T08:36:41;9.93;;;6.50;;
77409;SDS011;66481;51.332;22.804;2023-04-08T08:40:42;10.20;;;6.75;;
77409;SDS011;66481;51.332;22.804;2023-04-08T08:44:45;9.13;;;7.10;;
77409;SDS011;66481;51.332;22.804;2023-04-08T08:48:46;9.52;;;7.20;;
77409;SDS011;66481;51.332;22.804;2023-04-08T08:52:50;10.02;;;7.13;;
77409;SDS011;66481;51.332;22.804;2023-04-08T08:56:52;9.90;;;6.72;;
77409;SDS011;66481;51.332;22.804;2023-04-08T09:00:53;9.93;;;7.13;;
77409;SDS011;66481;51.332;22.804;2023-04-08T09:04:59;8.88;;;6.15;;
77409;SDS011;66481;51.332;22.804;2023-04-08T09:09:02;9.57;;;6.72;;
77409;SDS011;66481;51.332;22.804;2023-04-08T09:13:05;8.85;;;6.85;;
77409;SDS011;66481;51.332;22.804;2023-04-08T09:17:06;9.93;;;6.10;;
77409;SDS011;66481;51.332;22.804;2023-04-08T09:21:08;8.98;;;6.70;;
77409;SDS011;66481;51.332;22.804;2023-04-08T09:25:26;8.70;;;6.45;;
77409;SDS011;66481;51.332;22.804;2023-04-08T09:29:34;8.00;;;6.43;;
77409;SDS011;66481;51.332;22.804;2023-04-08T09:33:37;7.63;;;5.45;;
77409;SDS011;66481;51.332;22.804;2023-04-08T09:37:38;11.77;;;6.82;;
77409;SDS011;66481;51.332;22.804;2023-04-08T09:41:40;7.43;;;5.60;;
77409;SDS011;66481;51.332;22.804;2023-04-08T09:45:42;8.20;;;6.20;;
77409;SDS011;66481;51.332;22.804;2023-04-08T09:49:49;9.30;;;6.60;;
77409;SDS011;66481;51.332;22.804;2023-04-08T09:53:55;6.85;;;5.63;;
77409;SDS011;66481;51.332;22.804;2023-04-08T09:58:01;8.10;;;5.78;;
77409;SDS011;66481;51.332;22.804;2023-04-08T10:02:09;7.28;;;5.43;;
77409;SDS011;66481;51.332;22.804;2023-04-08T10:06:11;10.20;;;5.35;;
77409;SDS011;66481;51.332;22.804;2023-04-08T10:10:12;8.00;;;5.20;;
77409;SDS011;66481;51.332;22.804;2023-04-08T10:14:14;8.55;;;5.82;;
77409;SDS011;66481;51.332;22.804;2023-04-08T10:26:35;8.57;;;6.05;;
77409;SDS011;66481;51.332;22.804;2023-04-08T10:30:45;8.25;;;5.72;;
77409;SDS011;66481;51.332;22.804;2023-04-08T10:34:55;8.38;;;5.65;;
77409;SDS011;66481;51.332;22.804;2023-04-08T10:38:57;10.60;;;6.03;;
77409;SDS011;66481;51.332;22.804;2023-04-08T10:42:59;7.15;;;4.90;;
77409;SDS011;66481;51.332;22.804;2023-04-08T10:47:00;7.05;;;4.75;;
77409;SDS011;66481;51.332;22.804;2023-04-08T10:51:03;7.13;;;5.18;;
77409;SDS011;66481;51.332;22.804;2023-04-08T10:55:05;6.88;;;5.25;;
77409;SDS011;66481;51.332;22.804;2023-04-08T10:59:07;6.93;;;4.90;;
77409;SDS011;66481;51.332;22.804;2023-04-08T11:03:09;8.23;;;5.65;;
77409;SDS011;66481;51.332;22.804;2023-04-08T11:07:11;7.25;;;4.95;;
77409;SDS011;66481;51.332;22.804;2023-04-08T11:11:13;7.13;;;4.65;;
77409;SDS011;66481;51.332;22.804;2023-04-08T11:15:15;6.65;;;4.72;;
77409;SDS011;66481;51.332;22.804;2023-04-08T11:19:17;7.75;;;4.85;;
77409;SDS011;66481;51.332;22.804;2023-04-08T11:23:19;6.55;;;4.45;;
77409;SDS011;66481;51.332;22.804;2023-04-08T11:27:22;10.23;;;6.50;;
77409;SDS011;66481;51.332;22.804;2023-04-08T11:31:27;11.80;;;7.50;;
77409;SDS011;66481;51.332;22.804;2023-04-08T11:35:29;5.97;;;4.55;;
77409;SDS011;66481;51.332;22.804;2023-04-08T11:39:30;7.63;;;4.70;;
77409;SDS011;66481;51.332;22.804;2023-04-08T11:43:31;7.35;;;4.78;;
77409;SDS011;66481;51.332;22.804;2023-04-08T11:47:32;7.47;;;5.07;;
77409;SDS011;66481;51.332;22.804;2023-04-08T11:51:35;6.32;;;4.72;;
77409;SDS011;66481;51.332;22.804;2023-04-08T11:55:54;6.53;;;4.63;;
77409;SDS011;66481;51.332;22.804;2023-04-08T11:59:56;6.28;;;4.45;;
77409;SDS011;66481;51.332;22.804;2023-04-08T12:03:59;5.10;;;4.32;;
77409;SDS011;66481;51.332;22.804;2023-04-08T12:08:01;7.90;;;4.90;;
77409;SDS011;66481;51.332;22.804;2023-04-08T12:12:03;5.40;;;4.57;;
77409;SDS011;66481;51.332;22.804;2023-04-08T12:16:05;6.53;;;4.15;;
77409;SDS011;66481;51.332;22.804;2023-04-08T12:20:09;6.20;;;4.10;;
77409;SDS011;66481;51.332;22.804;2023-04-08T12:24:12;7.63;;;5.13;;
77409;SDS011;66481;51.332;22.804;2023-04-08T12:28:16;7.03;;;4.03;;
77409;SDS011;66481;51.332;22.804;2023-04-08T12:32:17;6.30;;;4.40;;
77409;SDS011;66481;51.332;22.804;2023-04-08T12:36:18;8.23;;;4.70;;
77409;SDS011;66481;51.332;22.804;2023-04-08T12:40:19;7.15;;;5.15;;
77409;SDS011;66481;51.332;22.804;2023-04-08T12:44:21;7.50;;;4.80;;
77409;SDS011;66481;51.332;22.804;2023-04-08T12:48:22;6.70;;;5.40;;
77409;SDS011;66481;51.332;22.804;2023-04-08T12:52:23;6.00;;;4.32;;
77409;SDS011;66481;51.332;22.804;2023-04-08T12:56:24;7.82;;;5.10;;
77409;SDS011;66481;51.332;22.804;2023-04-08T13:00:25;6.95;;;4.93;;
77409;SDS011;66481;51.332;22.804;2023-04-08T13:04:26;8.38;;;5.82;;
77409;SDS011;66481;51.332;22.804;2023-04-08T13:08:27;9.25;;;5.25;;
77409;SDS011;66481;51.332;22.804;2023-04-08T13:12:29;7.97;;;5.30;;
77409;SDS011;66481;51.332;22.804;2023-04-08T13:16:31;8.43;;;5.78;;
77409;SDS011;66481;51.332;22.804;2023-04-08T13:20:33;6.50;;;4.80;;
77409;SDS011;66481;51.332;22.804;2023-04-08T13:24:35;8.50;;;5.75;;
77409;SDS011;66481;51.332;22.804;2023-04-08T13:28:37;6.90;;;4.40;;
77409;SDS011;66481;51.332;22.804;2023-04-08T13:32:39;5.40;;;4.68;;
77409;SDS011;66481;51.332;22.804;2023-04-08T13:36:40;7.10;;;4.93;;
77409;SDS011;66481;51.332;22.804;2023-04-08T13:40:42;7.72;;;5.22;;
77409;SDS011;66481;51.332;22.804;2023-04-08T13:44:43;9.07;;;4.97;;
77409;SDS011;66481;51.332;22.804;2023-04-08T13:48:45;8.27;;;4.90;;
77409;SDS011;66481;51.332;22.804;2023-04-08T13:52:47;7.40;;;5.28;;
77409;SDS011;66481;51.332;22.804;2023-04-08T13:56:48;7.72;;;4.80;;
77409;SDS011;66481;51.332;22.804;2023-04-08T14:00:50;7.30;;;5.22;;
77409;SDS011;66481;51.332;22.804;2023-04-08T14:04:53;7.78;;;5.63;;
77409;SDS011;66481;51.332;22.804;2023-04-08T14:08:55;7.32;;;4.90;;
77409;SDS011;66481;51.332;22.804;2023-04-08T14:12:56;9.45;;;5.60;;
77409;SDS011;66481;51.332;22.804;2023-04-08T14:16:57;5.88;;;4.22;;
77409;SDS011;66481;51.332;22.804;2023-04-08T14:20:58;7.82;;;5.22;;
77409;SDS011;66481;51.332;22.804;2023-04-08T14:25:00;6.45;;;4.90;;
77409;SDS011;66481;51.332;22.804;2023-04-08T14:29:04;9.07;;;5.78;;
77409;SDS011;66481;51.332;22.804;2023-04-08T14:33:06;7.10;;;5.25;;
77409;SDS011;66481;51.332;22.804;2023-04-08T14:37:08;8.95;;;5.68;;
77409;SDS011;66481;51.332;22.804;2023-04-08T14:41:09;9.85;;;5.65;;
77409;SDS011;66481;51.332;22.804;2023-04-08T14:45:11;10.70;;;6.35;;
77409;SDS011;66481;51.332;22.804;2023-04-08T14:49:13;7.80;;;5.60;;
77409;SDS011;66481;51.332;22.804;2023-04-08T14:53:15;8.95;;;5.35;;
77409;SDS011;66481;51.332;22.804;2023-04-08T14:57:17;9.38;;;5.45;;
77409;SDS011;66481;51.332;22.804;2023-04-08T15:01:20;10.80;;;6.03;;
77409;SDS011;66481;51.332;22.804;2023-04-08T15:05:21;9.98;;;6.47;;
77409;SDS011;66481;51.332;22.804;2023-04-08T15:09:22;9.30;;;5.40;;
77409;SDS011;66481;51.332;22.804;2023-04-08T15:13:24;10.40;;;6.57;;
77409;SDS011;66481;51.332;22.804;2023-04-08T15:17:25;9.70;;;6.18;;
77409;SDS011;66481;51.332;22.804;2023-04-08T15:21:27;11.15;;;6.80;;
77409;SDS011;66481;51.332;22.804;2023-04-08T15:25:28;10.82;;;7.15;;
77409;SDS011;66481;51.332;22.804;2023-04-08T15:29:29;9.98;;;6.88;;
77409;SDS011;66481;51.332;22.804;2023-04-08T15:33:30;13.10;;;7.50;;
77409;SDS011;66481;51.332;22.804;2023-04-08T15:37:32;13.60;;;7.80;;
77409;SDS011;66481;51.332;22.804;2023-04-08T15:41:33;18.33;;;9.55;;
77409;SDS011;66481;51.332;22.804;2023-04-08T15:45:34;17.40;;;10.13;;
77409;SDS011;66481;51.332;22.804;2023-04-08T15:49:37;18.13;;;10.25;;
77409;SDS011;66481;51.332;22.804;2023-04-08T15:53:40;19.42;;;10.80;;
77409;SDS011;66481;51.332;22.804;2023-04-08T15:57:41;20.25;;;11.32;;
77409;SDS011;66481;51.332;22.804;2023-04-08T16:01:43;26.92;;;15.57;;
77409;SDS011;66481;51.332;22.804;2023-04-08T16:05:44;21.02;;;13.73;;
77409;SDS011;66481;51.332;22.804;2023-04-08T16:24:37;12.43;;;7.38;;
77409;SDS011;66481;51.332;22.804;2023-04-08T16:28:39;199.73;;;61.83;;
77409;SDS011;66481;51.332;22.804;2023-04-08T16:32:40;13.10;;;7.80;;
77409;SDS011;66481;51.332;22.804;2023-04-08T16:36:41;16.80;;;9.75;;
77409;SDS011;66481;51.332;22.804;2023-04-08T16:40:44;16.13;;;9.60;;
77409;SDS011;66481;51.332;22.804;2023-04-08T16:44:46;19.67;;;10.27;;
77409;SDS011;66481;51.332;22.804;2023-04-08T16:48:48;17.33;;;9.98;;
77409;SDS011;66481;51.332;22.804;2023-04-08T16:52:52;19.27;;;9.75;;
77409;SDS011;66481;51.332;22.804;2023-04-08T16:56:53;18.95;;;10.35;;
77409;SDS011;66481;51.332;22.804;2023-04-08T17:00:55;20.17;;;11.35;;
77409;SDS011;66481;51.332;22.804;2023-04-08T17:04:56;28.95;;;13.73;;
77409;SDS011;66481;51.332;22.804;2023-04-08T17:08:57;43.97;;;18.00;;
77409;SDS011;66481;51.332;22.804;2023-04-08T17:12:59;33.80;;;16.33;;
77409;SDS011;66481;51.332;22.804;2023-04-08T17:17:00;36.72;;;15.75;;
77409;SDS011;66481;51.332;22.804;2023-04-08T17:21:01;325.85;;;102.05;;
77409;SDS011;66481;51.332;22.804;2023-04-08T17:25:03;469.33;;;206.45;;
77409;SDS011;66481;51.332;22.804;2023-04-08T17:29:04;369.10;;;146.10;;
77409;SDS011;66481;51.332;22.804;2023-04-08T17:33:05;76.82;;;35.28;;
77409;SDS011;66481;51.332;22.804;2023-04-08T17:37:07;63.83;;;32.28;;
77409;SDS011;66481;51.332;22.804;2023-04-08T17:41:09;33.30;;;16.75;;
77409;SDS011;66481;51.332;22.804;2023-04-08T17:45:12;38.17;;;19.20;;
77409;SDS011;66481;51.332;22.804;2023-04-08T17:49:13;38.97;;;21.23;;
77409;SDS011;66481;51.332;22.804;2023-04-08T17:53:14;23.73;;;12.95;;
77409;SDS011;66481;51.332;22.804;2023-04-08T17:57:15;25.48;;;13.00;;
77409;SDS011;66481;51.332;22.804;2023-04-08T18:01:17;19.20;;;11.13;;
77409;SDS011;66481;51.332;22.804;2023-04-08T18:05:19;15.68;;;9.55;;
77409;SDS011;66481;51.332;22.804;2023-04-08T18:09:21;16.98;;;9.88;;
77409;SDS011;66481;51.332;22.804;2023-04-08T18:13:23;15.82;;;9.10;;
77409;SDS011;66481;51.332;22.804;2023-04-08T18:17:28;13.65;;;8.02;;
77409;SDS011;66481;51.332;22.804;2023-04-08T18:21:29;14.18;;;9.25;;
77409;SDS011;66481;51.332;22.804;2023-04-08T18:25:32;13.60;;;8.48;;
77409;SDS011;66481;51.332;22.804;2023-04-08T18:29:34;17.42;;;10.75;;
77409;SDS011;66481;51.332;22.804;2023-04-08T18:33:35;18.25;;;12.02;;
77409;SDS011;66481;51.332;22.804;2023-04-08T18:37:39;12.60;;;9.02;;
77409;SDS011;66481;51.332;22.804;2023-04-08T18:41:43;13.18;;;8.60;;
77409;SDS011;66481;51.332;22.804;2023-04-08T18:45:44;12.00;;;8.00;;
77409;SDS011;66481;51.332;22.804;2023-04-08T18:49:47;11.52;;;7.43;;
77409;SDS011;66481;51.332;22.804;2023-04-08T18:53:49;12.40;;;7.60;;
77409;SDS011;66481;51.332;22.804;2023-04-08T18:57:53;11.13;;;7.28;;
77409;SDS011;66481;51.332;22.804;2023-04-08T19:01:56;10.90;;;7.07;;
77409;SDS011;66481;51.332;22.804;2023-04-08T19:06:07;11.80;;;7.07;;
77409;SDS011;66481;51.332;22.804;2023-04-08T19:10:10;12.35;;;7.57;;
77409;SDS011;66481;51.332;22.804;2023-04-08T19:14:13;10.45;;;7.22;;
77409;SDS011;66481;51.332;22.804;2023-04-08T19:18:15;11.80;;;7.47;;
77409;SDS011;66481;51.332;22.804;2023-04-08T19:22:17;12.20;;;8.07;;
77409;SDS011;66481;51.332;22.804;2023-04-08T19:26:18;13.45;;;7.80;;
77409;SDS011;66481;51.332;22.804;2023-04-08T19:30:20;13.07;;;7.95;;
77409;SDS011;66481;51.332;22.804;2023-04-08T19:39:45;14.70;;;8.23;;
77409;SDS011;66481;51.332;22.804;2023-04-08T19:43:47;13.45;;;9.02;;
77409;SDS011;66481;51.332;22.804;2023-04-08T19:47:48;13.75;;;8.63;;
77409;SDS011;66481;51.332;22.804;2023-04-08T19:51:50;17.58;;;9.45;;
77409;SDS011;66481;51.332;22.804;2023-04-08T19:59:58;16.70;;;9.35;;
77409;SDS011;66481;51.332;22.804;2023-04-08T20:04:00;22.95;;;11.82;;
77409;SDS011;66481;51.332;22.804;2023-04-08T20:08:02;28.25;;;14.52;;
77409;SDS011;66481;51.332;22.804;2023-04-08T20:12:04;26.98;;;14.48;;
77409;SDS011;66481;51.332;22.804;2023-04-08T20:16:06;28.88;;;14.07;;
77409;SDS011;66481;51.332;22.804;2023-04-08T20:20:07;26.30;;;14.70;;
77409;SDS011;66481;51.332;22.804;2023-04-08T20:24:09;24.63;;;14.35;;
77409;SDS011;66481;51.332;22.804;2023-04-08T20:28:11;25.92;;;13.68;;
77409;SDS011;66481;51.332;22.804;2023-04-08T20:32:12;29.20;;;14.15;;
77409;SDS011;66481;51.332;22.804;2023-04-08T20:36:15;29.80;;;14.20;;
77409;SDS011;66481;51.332;22.804;2023-04-08T20:40:16;25.92;;;12.38;;
77409;SDS011;66481;51.332;22.804;2023-04-08T20:44:17;18.60;;;10.55;;
77409;SDS011;66481;51.332;22.804;2023-04-08T20:48:19;23.95;;;12.40;;
77409;SDS011;66481;51.332;22.804;2023-04-08T20:52:21;23.35;;;11.85;;
77409;SDS011;66481;51.332;22.804;2023-04-08T20:56:22;19.17;;;11.93;;
77409;SDS011;66481;51.332;22.804;2023-04-08T21:00:25;23.95;;;12.75;;
77409;SDS011;66481;51.332;22.804;2023-04-08T21:04:26;22.95;;;11.15;;
77409;SDS011;66481;51.332;22.804;2023-04-08T21:08:28;20.90;;;11.85;;
77409;SDS011;66481;51.332;22.804;2023-04-08T21:12:29;20.65;;;12.18;;
77409;SDS011;66481;51.332;22.804;2023-04-08T21:16:30;20.75;;;11.95;;
77409;SDS011;66481;51.332;22.804;2023-04-08T21:20:31;26.35;;;14.13;;
77409;SDS011;66481;51.332;22.804;2023-04-08T21:24:32;23.25;;;12.63;;
77409;SDS011;66481;51.332;22.804;2023-04-08T21:28:33;30.20;;;14.57;;
77409;SDS011;66481;51.332;22.804;2023-04-08T21:32:36;33.33;;;16.42;;
77409;SDS011;66481;51.332;22.804;2023-04-08T21:36:37;32.53;;;16.20;;
77409;SDS011;66481;51.332;22.804;2023-04-08T21:40:38;30.38;;;16.13;;
77409;SDS011;66481;51.332;22.804;2023-04-08T21:44:40;32.55;;;16.08;;
77409;SDS011;66481;51.332;22.804;2023-04-08T21:48:41;31.63;;;16.25;;
77409;SDS011;66481;51.332;22.804;2023-04-08T21:52:43;30.33;;;16.40;;
77409;SDS011;66481;51.332;22.804;2023-04-08T21:56:45;28.27;;;15.45;;
77409;SDS011;66481;51.332;22.804;2023-04-08T22:00:47;31.80;;;16.95;;
77409;SDS011;66481;51.332;22.804;2023-04-08T22:04:50;37.33;;;18.05;;
77409;SDS011;66481;51.332;22.804;2023-04-08T22:08:52;32.70;;;16.80;;
77409;SDS011;66481;51.332;22.804;2023-04-08T22:12:54;33.20;;;15.85;;
77409;SDS011;66481;51.332;22.804;2023-04-08T22:16:55;27.77;;;15.75;;
77409;SDS011;66481;51.332;22.804;2023-04-08T22:20:56;30.08;;;15.38;;
77409;SDS011;66481;51.332;22.804;2023-04-08T22:24:57;30.40;;;15.93;;
77409;SDS011;66481;51.332;22.804;2023-04-08T22:28:58;28.58;;;16.00;;
77409;SDS011;66481;51.332;22.804;2023-04-08T22:32:59;30.88;;;16.15;;
77409;SDS011;66481;51.332;22.804;2023-04-08T22:37:00;34.75;;;16.83;;
77409;SDS011;66481;51.332;22.804;2023-04-08T22:41:02;30.20;;;16.83;;
77409;SDS011;66481;51.332;22.804;2023-04-08T22:45:03;27.52;;;15.43;;
77409;SDS011;66481;51.332;22.804;2023-04-08T22:49:05;28.80;;;15.00;;
77409;SDS011;66481;51.332;22.804;2023-04-08T22:53:06;29.13;;;14.93;;
77409;SDS011;66481;51.332;22.804;2023-04-08T22:57:07;24.90;;;13.63;;
77409;SDS011;66481;51.332;22.804;2023-04-08T23:01:12;25.67;;;13.65;;
77409;SDS011;66481;51.332;22.804;2023-04-08T23:05:16;26.42;;;14.30;;
77409;SDS011;66481;51.332;22.804;2023-04-08T23:09:17;28.92;;;14.10;;
77409;SDS011;66481;51.332;22.804;2023-04-08T23:13:20;29.17;;;14.32;;
77409;SDS011;66481;51.332;22.804;2023-04-08T23:17:21;28.63;;;14.77;;
77409;SDS011;66481;51.332;22.804;2023-04-08T23:21:22;25.98;;;15.02;;
77409;SDS011;66481;51.332;22.804;2023-04-08T23:25:23;23.48;;;14.15;;
77409;SDS011;66481;51.332;22.804;2023-04-08T23:29:24;24.02;;;13.25;;
77409;SDS011;66481;51.332;22.804;2023-04-08T23:33:25;27.80;;;14.55;;
77409;SDS011;66481;51.332;22.804;2023-04-08T23:37:27;26.75;;;13.80;;
77409;SDS011;66481;51.332;22.804;2023-04-08T23:41:29;26.73;;;14.80;;
77409;SDS011;66481;51.332;22.804;2023-04-08T23:45:30;25.65;;;15.27;;
77409;SDS011;66481;51.332;22.804;2023-04-08T23:49:31;25.95;;;14.55;;
77409;SDS011;66481;51.332;22.804;2023-04-08T23:53:32;23.40;;;14.23;;
77409;SDS011;66481;51.332;22.804;2023-04-08T23:57:35;27.92;;;15.02;;
